createdAt,value
2022-09-09T12:42:17.958Z,15.00
2022-09-09T12:43:25.037Z,15.72
2022-09-09T12:44:29.583Z,16.58
2022-09-09T12:45:37.269Z,17.31
2022-09-09T12:46:42.042Z,17.54
2022-09-09T12:47:50.989Z,17.68
2022-09-09T12:48:55.506Z,18.32
2022-09-09T12:50:00.458Z,18.82
2022-09-09T12:51:02.999Z,19.08
2022-09-09T12:52:11.543Z,19.23
2022-09-09T12:53:26.082Z,19.22
2022-09-09T12:54:31.791Z,19.85
2022-09-09T12:55:41.518Z,20.58
2022-09-09T12:56:50.459Z,21.28
2022-09-09T12:57:56.563Z,22.37
2022-09-09T12:58:59.869Z,22.88
2022-09-09T13:00:10.880Z,23.41
2022-09-09T13:01:26.011Z,23.36
2022-09-09T13:02:29.234Z,24.22
2022-09-09T13:03:35.024Z,24.73
2022-09-09T13:04:37.284Z,24.89
2022-09-09T13:05:42.763Z,24.70
2022-09-09T13:06:44.786Z,25.68
2022-09-09T13:07:49.457Z,24.52
2022-09-09T13:08:52.474Z,25.29
2022-09-09T13:09:57.096Z,26.06
2022-09-09T13:11:07.843Z,25.16
2022-09-09T13:12:15.661Z,25.95
2022-09-09T13:13:24.973Z,27.16
2022-09-09T13:14:31.525Z,27.89
2022-09-09T13:15:36.237Z,27.98
2022-09-09T13:16:43.143Z,27.79
2022-09-09T13:17:54.730Z,27.44
2022-09-09T13:18:57.222Z,27.89
2022-09-09T13:20:01.908Z,27.85
2022-09-09T13:21:04.334Z,27.77
2022-09-09T13:22:16.269Z,28.63
2022-09-09T13:23:23.397Z,26.51
2022-09-09T13:24:34.283Z,25.35
2022-09-09T13:25:39.604Z,26.73
2022-09-09T13:26:58.602Z,26.88
2022-09-09T13:28:05.355Z,27.27
2022-09-09T13:29:21.317Z,27.87
2022-09-09T13:30:28.941Z,28.41
2022-09-09T13:31:37.164Z,28.74
2022-09-09T13:32:39.172Z,28.36
2022-09-09T13:33:43.776Z,27.42
2022-09-09T13:34:52.622Z,26.80
2022-09-09T13:36:00.010Z,26.35
2022-09-09T13:37:04.808Z,25.46
2022-09-09T13:38:13.292Z,25.79
2022-09-09T13:39:18.808Z,26.56
2022-09-09T13:40:25.483Z,27.76
2022-09-09T13:41:40.027Z,27.31
2022-09-09T13:42:46.107Z,28.03
2022-09-09T13:43:51.920Z,28.28
2022-09-09T13:44:54.694Z,28.59
2022-09-09T13:46:02.442Z,28.62
2022-09-09T13:47:10.500Z,26.23
2022-09-09T13:48:22.191Z,25.79
2022-09-09T13:49:25.505Z,25.42
2022-09-09T13:50:32.264Z,24.39
2022-09-09T13:51:38.284Z,24.78
2022-09-09T13:52:42.910Z,26.40
2022-09-09T13:53:48.730Z,25.47
2022-09-09T13:54:55.131Z,27.11
2022-09-09T13:55:58.030Z,25.61
2022-09-09T13:57:02.682Z,25.96
2022-09-09T13:58:07.298Z,26.25
2022-09-09T13:59:15.690Z,27.30
2022-09-09T14:00:17.881Z,26.45
2022-09-09T14:01:25.280Z,25.62
2022-09-09T14:02:32.313Z,24.41
2022-09-09T14:03:38.370Z,23.63
2022-09-09T14:04:42.270Z,22.63
2022-09-09T14:05:48.125Z,21.85
2022-09-09T14:06:53.752Z,22.28
2022-09-09T14:07:55.987Z,21.94
2022-09-09T14:09:00.591Z,21.45
2022-09-09T14:10:02.831Z,21.46
2022-09-09T14:11:07.696Z,21.17
2022-09-09T14:12:11.999Z,21.50
2022-09-09T14:13:19.396Z,20.67
2022-09-09T14:14:21.392Z,20.94
2022-09-09T14:15:26.176Z,20.94
2022-09-09T14:16:28.882Z,20.67
2022-09-09T14:17:33.487Z,20.67
2022-09-09T14:18:35.555Z,20.88
2022-09-09T14:19:40.826Z,20.76
2022-09-09T14:20:42.830Z,20.74
2022-09-09T14:21:47.427Z,20.66
2022-09-09T14:22:49.439Z,20.50
2022-09-09T14:23:54.105Z,21.44
2022-09-09T14:24:56.072Z,21.97
2022-09-09T14:26:00.665Z,22.51
2022-09-09T14:27:03.107Z,22.53
2022-09-09T14:28:07.709Z,22.65
2022-09-09T14:29:12.185Z,22.84
2022-09-09T14:30:17.028Z,23.08
2022-09-09T14:31:22.259Z,23.40
2022-09-09T14:32:24.316Z,24.16
2022-09-09T14:33:30.256Z,23.93
2022-09-09T14:34:33.429Z,24.49
2022-09-09T14:35:38.092Z,24.47
2022-09-09T14:36:40.122Z,23.67
2022-09-09T14:37:45.737Z,23.30
2022-09-09T14:38:48.459Z,22.42
2022-09-09T14:39:55.120Z,22.04
2022-09-09T14:40:57.606Z,22.37
2022-09-09T14:42:02.202Z,22.41
2022-09-09T14:43:04.680Z,22.60
2022-09-09T14:44:09.269Z,23.16
2022-09-09T14:45:14.249Z,23.60
2022-09-09T14:46:20.879Z,24.72
2022-09-09T14:47:23.227Z,25.23
2022-09-09T14:48:27.896Z,26.69
2022-09-09T14:49:29.865Z,26.96
2022-09-09T14:50:35.915Z,27.30
2022-09-09T14:51:38.162Z,26.49
2022-09-09T14:52:42.723Z,24.96
2022-09-09T14:53:45.694Z,25.19
2022-09-09T14:54:50.600Z,24.54
2022-09-09T14:55:52.649Z,25.59
2022-09-09T14:56:58.186Z,25.29
2022-09-09T14:58:00.191Z,26.46
2022-09-09T14:59:05.045Z,27.38
2022-09-09T15:00:08.693Z,27.88
2022-09-09T15:01:18.742Z,27.95
2022-09-09T15:02:20.863Z,28.76
2022-09-09T15:03:25.676Z,26.93
2022-09-09T15:04:28.780Z,28.23
2022-09-09T15:05:33.465Z,25.42
2022-09-09T15:06:39.543Z,24.76
2022-09-09T15:07:44.584Z,26.24
2022-09-09T15:08:47.768Z,25.84
2022-09-09T15:09:53.771Z,24.01
2022-09-09T15:11:01.109Z,23.87
2022-09-09T15:12:05.988Z,23.93
2022-09-09T15:13:07.985Z,23.20
2022-09-09T15:14:13.247Z,23.43
2022-09-09T15:15:18.325Z,23.09
2022-09-09T15:16:25.416Z,22.31
2022-09-09T15:17:30.228Z,22.44
2022-09-09T15:18:33.371Z,22.26
2022-09-09T15:19:37.984Z,22.26
2022-09-09T15:20:40.472Z,21.83
2022-09-09T15:21:45.474Z,22.01
2022-09-09T15:22:47.544Z,22.08
2022-09-09T15:23:52.950Z,21.53
2022-09-09T15:24:54.932Z,21.90
2022-09-09T15:25:59.933Z,21.97
2022-09-09T15:27:05.273Z,21.87
2022-09-09T15:28:07.294Z,21.68
2022-09-09T15:29:12.461Z,21.71
2022-09-09T15:30:14.752Z,21.97
2022-09-09T15:31:21.577Z,22.46
2022-09-09T15:32:28.803Z,24.18
2022-09-09T15:33:30.801Z,24.41
2022-09-09T15:34:35.840Z,25.79
2022-09-09T15:35:37.837Z,26.19
2022-09-09T15:36:44.276Z,25.86
2022-09-09T15:37:46.615Z,25.17
2022-09-09T15:38:51.648Z,23.86
2022-09-09T15:39:56.272Z,23.48
2022-09-09T15:40:59.595Z,23.79
2022-09-09T15:42:04.481Z,23.32
2022-09-09T15:43:06.720Z,23.38
2022-09-09T15:44:12.119Z,23.77
2022-09-09T15:45:14.211Z,23.59
2022-09-09T15:46:31.395Z,24.72
2022-09-09T15:47:38.706Z,26.06
2022-09-09T15:48:40.704Z,25.79
2022-09-09T15:49:45.301Z,25.63
2022-09-09T15:50:47.328Z,25.76
2022-09-09T15:51:56.186Z,25.63
2022-09-09T15:52:58.391Z,25.16
2022-09-09T15:54:03.227Z,25.13
2022-09-09T15:55:09.336Z,26.39
2022-09-09T15:56:12.138Z,26.54
2022-09-09T15:57:17.294Z,24.00
2022-09-09T15:58:20.348Z,23.09
2022-09-09T15:59:25.044Z,21.26
2022-09-09T16:00:27.265Z,21.51
2022-09-09T16:01:32.225Z,20.94
2022-09-09T16:02:39.602Z,20.63
2022-09-09T16:03:45.657Z,20.30
2022-09-09T16:04:50.388Z,19.99
2022-09-09T16:05:52.762Z,19.89
2022-09-09T16:06:59.503Z,19.74
2022-09-09T16:08:05.298Z,19.76
2022-09-09T16:09:11.324Z,19.73
2022-09-09T16:10:14.696Z,19.96
2022-09-09T16:11:21.150Z,20.03
2022-09-09T16:12:26.508Z,20.02
2022-09-09T16:13:29.018Z,20.15
2022-09-09T16:14:36.807Z,20.25
2022-09-09T16:15:39.150Z,20.15
2022-09-09T16:16:43.780Z,20.01
2022-09-09T16:17:48.385Z,19.80
2022-09-09T16:18:54.614Z,19.93
2022-09-09T16:19:59.267Z,19.81
2022-09-09T16:21:01.527Z,19.66
2022-09-09T16:22:07.660Z,19.62
2022-09-09T16:23:10.045Z,19.51
2022-09-09T16:24:16.729Z,19.36
2022-09-09T16:25:19.690Z,19.28
2022-09-09T16:26:24.606Z,19.07
2022-09-09T16:27:26.722Z,18.94
2022-09-09T16:28:31.783Z,18.87
2022-09-09T16:29:37.246Z,18.71
2022-09-09T16:30:40.066Z,18.60
2022-09-09T16:31:45.445Z,18.62
2022-09-09T16:32:50.702Z,18.66
2022-09-09T16:33:55.582Z,18.59
2022-09-09T16:34:57.630Z,18.47
2022-09-09T16:36:02.433Z,18.30
2022-09-09T16:37:07.079Z,18.18
2022-09-09T16:38:09.149Z,18.18
2022-09-09T16:39:15.784Z,18.05
2022-09-09T16:40:18.442Z,17.97
2022-09-09T16:41:23.137Z,18.01
2022-09-09T16:42:25.269Z,18.00
2022-09-09T16:43:29.945Z,17.97
2022-09-09T16:44:34.674Z,17.94
2022-09-09T16:45:43.400Z,17.81
2022-09-09T16:46:49.867Z,17.81
2022-09-09T16:47:54.840Z,17.81
2022-09-09T16:49:00.974Z,17.79
2022-09-09T16:50:03.077Z,17.63
2022-09-09T16:51:09.758Z,17.61
2022-09-09T16:52:18.432Z,17.57
2022-09-09T16:53:22.571Z,17.64
2022-09-09T16:54:28.378Z,17.68
2022-09-09T16:55:31.072Z,17.67
2022-09-09T16:56:38.049Z,17.72
2022-09-09T16:57:40.428Z,17.66
2022-09-09T16:58:46.387Z,17.70
2022-09-09T16:59:51.477Z,17.61
2022-09-09T17:00:59.321Z,17.64
2022-09-09T17:02:06.077Z,17.64
2022-09-09T17:03:13.711Z,17.54
2022-09-09T17:04:21.825Z,17.52
2022-09-09T17:05:24.306Z,17.47
2022-09-09T17:06:30.159Z,17.49
2022-09-09T17:07:33.613Z,17.47
2022-09-09T17:08:38.265Z,17.59
2022-09-09T17:09:43.091Z,17.58
2022-09-09T17:10:45.448Z,17.59
2022-09-09T17:11:51.850Z,17.63
2022-09-09T17:12:54.153Z,17.52
2022-09-09T17:14:01.345Z,17.49
2022-09-09T17:15:04.624Z,17.41
2022-09-09T17:16:09.562Z,17.35
2022-09-09T17:17:31.102Z,17.27
2022-09-09T17:18:39.806Z,17.26
2022-09-09T17:19:44.447Z,17.20
2022-09-09T17:20:47.409Z,17.06
2022-09-09T17:22:15.562Z,17.03
2022-09-09T17:23:17.092Z,16.87
2022-09-09T17:24:22.812Z,16.68
2022-09-09T17:25:25.436Z,16.51
2022-09-09T17:26:32.491Z,16.39
2022-09-09T17:27:37.277Z,16.27
2022-09-09T17:28:43.276Z,16.34
2022-09-09T17:29:47.956Z,16.20
2022-09-09T17:30:53.749Z,16.17
2022-09-09T17:31:59.116Z,16.09
2022-09-09T17:33:01.291Z,16.13
2022-09-09T17:34:08.916Z,16.10
2022-09-09T17:35:10.935Z,16.02
2022-09-09T17:36:18.480Z,15.92
2022-09-09T17:37:20.590Z,15.95
2022-09-09T17:38:28.662Z,15.70
2022-09-09T17:39:33.470Z,15.68
2022-09-09T17:40:35.506Z,15.67
2022-09-09T17:41:41.851Z,15.51
2022-09-09T17:42:43.893Z,15.50
2022-09-09T17:43:48.763Z,15.46
2022-09-09T17:44:50.797Z,15.41
2022-09-09T17:45:55.469Z,15.25
2022-09-09T17:47:00.478Z,15.21
2022-09-09T17:48:03.761Z,15.21
2022-09-09T17:49:13.030Z,15.10
2022-09-09T17:50:19.549Z,15.10
2022-09-09T17:51:25.649Z,14.95
2022-09-09T17:52:32.787Z,14.95
2022-09-09T17:53:39.030Z,14.85
2022-09-09T17:54:43.602Z,14.80
2022-09-09T17:55:48.789Z,14.79
2022-09-09T17:56:55.736Z,14.78
2022-09-09T17:57:57.723Z,14.70
2022-09-09T17:59:03.532Z,14.68
2022-09-09T18:00:10.749Z,14.57
2022-09-09T18:01:15.522Z,14.54
2022-09-09T18:02:20.403Z,14.52
2022-09-09T18:03:22.600Z,14.45
2022-09-09T18:04:29.842Z,14.39
2022-09-09T18:05:31.879Z,14.37
2022-09-09T18:06:39.798Z,14.36
2022-09-09T18:07:44.354Z,14.35
2022-09-09T18:08:49.719Z,14.27
2022-09-09T18:09:54.309Z,14.22
2022-09-09T18:10:56.669Z,14.21
2022-09-09T18:12:02.622Z,14.15
2022-09-09T18:13:04.568Z,14.14
2022-09-09T18:14:10.660Z,14.14
2022-09-09T18:15:20.945Z,14.21
2022-09-09T18:16:36.114Z,14.13
2022-09-09T18:17:40.739Z,14.06
2022-09-09T18:18:42.767Z,14.07
2022-09-09T18:19:49.964Z,14.07
2022-09-09T18:20:59.135Z,14.09
2022-09-09T18:22:04.969Z,14.14
2022-09-09T18:23:06.968Z,14.12
2022-09-09T18:24:12.562Z,14.09
2022-09-09T18:25:14.963Z,14.13
2022-09-09T18:26:22.666Z,14.08
2022-09-09T18:27:28.677Z,14.04
2022-09-09T18:28:30.691Z,13.98
2022-09-09T18:29:35.398Z,14.01
2022-09-09T18:30:40.415Z,14.02
2022-09-09T18:31:46.187Z,14.03
2022-09-09T18:32:53.091Z,14.01
2022-09-09T18:33:56.985Z,14.00
2022-09-09T18:35:04.160Z,13.98
2022-09-09T18:36:07.893Z,13.98
2022-09-09T18:37:13.369Z,13.99
2022-09-09T18:38:17.425Z,14.05
2022-09-09T18:39:23.494Z,14.05
2022-09-09T18:40:28.161Z,14.02
2022-09-09T18:41:33.074Z,13.98
2022-09-09T18:42:37.599Z,13.92
2022-09-09T18:43:39.701Z,13.88
2022-09-09T18:44:44.458Z,13.85
2022-09-09T18:45:46.550Z,13.96
2022-09-09T18:46:52.606Z,13.92
2022-09-09T18:47:54.666Z,13.99
2022-09-09T18:49:00.132Z,13.94
2022-09-09T18:50:05.542Z,13.86
2022-09-09T18:51:12.395Z,13.81
2022-09-09T18:52:17.101Z,13.79
2022-09-09T18:53:19.139Z,13.74
2022-09-09T18:54:25.754Z,13.69
2022-09-09T18:55:29.111Z,13.63
2022-09-09T18:56:35.030Z,13.60
2022-09-09T18:57:38.585Z,13.59
2022-09-09T18:58:44.171Z,13.59
2022-09-09T18:59:49.309Z,13.53
2022-09-09T19:00:51.434Z,13.51
2022-09-09T19:01:56.912Z,13.46
2022-09-09T19:02:58.958Z,13.46
2022-09-09T19:04:03.687Z,13.44
2022-09-09T19:05:12.054Z,13.43
2022-09-09T19:06:17.156Z,13.41
2022-09-09T19:07:22.774Z,13.40
2022-09-09T19:08:24.902Z,13.38
2022-09-09T19:09:32.505Z,13.34
2022-09-09T19:10:36.596Z,13.30
2022-09-09T19:11:42.395Z,13.26
2022-09-09T19:12:44.564Z,13.21
2022-09-09T19:13:54.486Z,13.17
2022-09-09T19:14:59.476Z,13.13
2022-09-09T19:16:04.756Z,13.09
2022-09-09T19:17:09.511Z,13.04
2022-09-09T19:18:11.560Z,12.99
2022-09-09T19:19:19.163Z,12.97
2022-09-09T19:20:25.305Z,12.92
2022-09-09T19:21:32.436Z,12.90
2022-09-09T19:22:34.595Z,12.84
2022-09-09T19:23:39.250Z,12.83
2022-09-09T19:24:41.531Z,12.81
2022-09-09T19:25:46.294Z,12.75
2022-09-09T19:26:50.337Z,12.68
2022-09-09T19:27:55.247Z,12.64
2022-09-09T19:28:58.878Z,12.61
2022-09-09T19:30:03.457Z,12.57
2022-09-09T19:31:06.583Z,12.53
2022-09-09T19:33:34.172Z,12.39
2022-09-09T19:34:39.039Z,12.34
2022-09-09T19:35:45.898Z,12.28
2022-09-09T19:36:51.836Z,12.26
2022-09-09T19:37:54.673Z,12.26
2022-09-09T19:39:00.179Z,12.25
2022-09-09T19:40:06.696Z,12.23
2022-09-09T19:41:11.437Z,12.20
2022-09-09T19:42:16.025Z,12.19
2022-09-09T19:43:17.992Z,12.20
2022-09-09T19:44:22.686Z,12.15
2022-09-09T19:45:27.690Z,12.12
2022-09-09T19:46:34.642Z,12.11
2022-09-09T19:47:39.284Z,12.07
2022-09-09T19:48:42.799Z,12.03
2022-09-09T19:49:47.995Z,12.01
2022-09-09T19:50:53.045Z,11.98
2022-09-09T19:51:57.975Z,11.96
2022-09-09T19:53:00.193Z,11.92
2022-09-09T19:54:08.714Z,11.89
2022-09-09T19:55:13.966Z,11.91
2022-09-09T19:56:17.287Z,11.88
2022-09-09T19:57:23.722Z,11.84
2022-09-09T19:58:25.714Z,11.82
2022-09-09T19:59:31.363Z,11.77
2022-09-09T20:00:39.426Z,11.72
2022-09-09T20:01:47.223Z,11.68
2022-09-09T20:03:15.294Z,11.65
2022-09-09T20:04:17.869Z,11.59
2022-09-09T20:05:19.956Z,11.56
2022-09-09T20:06:30.990Z,11.52
2022-09-09T20:07:33.446Z,11.48
2022-09-09T20:08:40.247Z,11.41
2022-09-09T20:09:45.040Z,11.38
2022-09-09T20:10:54.447Z,11.37
2022-09-09T20:11:59.538Z,11.38
2022-09-09T20:13:01.569Z,11.40
2022-09-09T20:14:06.395Z,11.38
2022-09-09T20:15:12.960Z,11.36
2022-09-09T20:16:17.486Z,11.34
2022-09-09T20:17:22.197Z,11.33
2022-09-09T20:18:24.649Z,11.32
2022-09-09T20:19:29.771Z,11.33
2022-09-09T20:20:31.824Z,11.33
2022-09-09T20:21:45.181Z,11.34
2022-09-09T20:22:49.438Z,11.30
2022-09-09T20:23:55.872Z,11.34
2022-09-09T20:24:57.901Z,11.32
2022-09-09T20:26:06.666Z,11.38
2022-09-09T20:27:09.468Z,11.35
2022-09-09T20:28:14.290Z,11.35
2022-09-09T20:29:21.306Z,11.33
2022-09-09T20:30:23.327Z,11.36
2022-09-09T20:31:29.857Z,11.35
2022-09-09T20:32:34.821Z,11.33
2022-09-09T20:33:37.022Z,11.30
2022-09-09T20:34:45.223Z,11.28
2022-09-09T20:35:49.857Z,11.28
2022-09-09T20:36:57.728Z,11.27
2022-09-09T20:38:00.895Z,11.30
2022-09-09T20:39:07.435Z,11.34
2022-09-09T20:40:10.310Z,11.39
2022-09-09T20:41:15.087Z,11.41
2022-09-09T20:42:19.537Z,11.46
2022-09-09T20:43:24.206Z,11.50
2022-09-09T20:44:29.769Z,11.55
2022-09-09T20:45:32.330Z,11.60
2022-09-09T20:46:39.203Z,11.64
2022-09-09T20:47:41.439Z,11.69
2022-09-09T20:48:46.173Z,11.71
2022-09-09T20:49:50.828Z,11.74
2022-09-09T20:50:52.894Z,11.76
2022-09-09T20:52:00.142Z,11.78
2022-09-09T20:53:02.186Z,11.79
2022-09-09T20:54:09.308Z,11.81
2022-09-09T20:55:11.355Z,11.84
2022-09-09T20:56:18.219Z,11.84
2022-09-09T20:57:23.308Z,11.82
2022-09-09T20:58:28.519Z,11.80
2022-09-09T20:59:35.448Z,11.78
2022-09-09T21:00:37.480Z,11.76
2022-09-09T21:01:42.805Z,11.75
2022-09-09T21:02:45.484Z,11.74
2022-09-09T21:03:50.891Z,11.70
2022-09-09T21:04:55.557Z,11.66
2022-09-09T21:05:58.399Z,11.69
2022-09-09T21:07:07.592Z,11.78
2022-09-09T21:08:09.742Z,11.74
2022-09-09T21:09:14.418Z,11.82
2022-09-09T21:10:17.630Z,11.78
2022-09-09T21:11:22.276Z,11.79
2022-09-09T21:12:24.432Z,11.80
2022-09-09T21:13:29.050Z,11.81
2022-09-09T21:14:32.785Z,11.82
2022-09-09T21:15:38.156Z,11.81
2022-09-09T21:16:43.105Z,11.88
2022-09-09T21:17:45.136Z,11.89
2022-09-09T21:18:50.027Z,11.89
2022-09-09T21:19:55.294Z,11.91
2022-09-09T21:21:02.169Z,11.91
2022-09-09T21:22:07.105Z,11.89
2022-09-09T21:23:11.938Z,11.94
2022-09-09T21:24:16.789Z,11.96
2022-09-09T21:25:18.772Z,12.00
2022-09-09T21:26:23.419Z,11.99
2022-09-09T21:27:25.844Z,12.03
2022-09-09T21:28:31.405Z,12.01
2022-09-09T21:29:33.550Z,12.06
2022-09-09T21:30:43.973Z,12.15
2022-09-09T21:31:46.564Z,12.17
2022-09-09T21:32:51.593Z,12.30
2022-09-09T21:33:53.635Z,12.37
2022-09-09T21:34:58.222Z,12.39
2022-09-09T21:36:03.438Z,12.39
2022-09-09T21:37:12.220Z,12.43
2022-09-09T21:38:17.407Z,12.40
2022-09-09T21:39:22.251Z,12.42
2022-09-09T21:40:24.799Z,12.44
2022-09-09T21:41:29.445Z,12.43
2022-09-09T21:42:31.772Z,12.39
2022-09-09T21:43:36.554Z,12.41
2022-09-09T21:44:41.170Z,12.41
2022-09-09T21:45:43.359Z,12.39
2022-09-09T21:46:48.078Z,12.36
2022-09-09T21:47:51.200Z,12.39
2022-09-09T21:48:56.654Z,12.35
2022-09-09T21:50:01.083Z,12.45
2022-09-09T21:51:07.913Z,12.50
2022-09-09T21:52:12.560Z,12.64
2022-09-09T21:53:19.151Z,12.58
2022-09-09T21:54:21.439Z,12.49
2022-09-09T21:55:26.001Z,12.50
2022-09-09T21:56:28.138Z,12.48
2022-09-09T21:57:32.846Z,12.41
2022-09-09T21:58:35.428Z,12.36
2022-09-09T21:59:40.719Z,12.31
2022-09-09T22:00:45.836Z,12.24
2022-09-09T22:01:50.604Z,12.18
2022-09-09T22:02:52.801Z,12.13
2022-09-09T22:03:57.459Z,12.07
2022-09-09T22:04:59.463Z,12.05
2022-09-09T22:06:08.593Z,11.99
2022-09-09T22:07:17.166Z,11.95
2022-09-09T22:08:21.884Z,12.00
2022-09-09T22:09:26.726Z,12.01
2022-09-09T22:10:29.020Z,12.02
2022-09-09T22:11:33.752Z,11.97
2022-09-09T22:12:36.079Z,11.98
2022-09-09T22:13:41.648Z,11.96
2022-09-09T22:14:43.689Z,11.95
2022-09-09T22:15:49.275Z,11.92
2022-09-09T22:16:51.634Z,11.90
2022-09-09T22:17:56.351Z,11.88
2022-09-09T22:19:03.649Z,11.84
2022-09-09T22:20:07.451Z,11.79
2022-09-09T22:21:14.208Z,11.77
2022-09-09T22:22:19.668Z,11.76
2022-09-09T22:23:24.621Z,11.76
2022-09-09T22:24:27.689Z,11.72
2022-09-09T22:25:36.336Z,11.69
2022-09-09T22:26:39.189Z,11.73
2022-09-09T22:27:43.771Z,11.78
2022-09-09T22:28:45.757Z,11.79
2022-09-09T22:29:50.364Z,11.74
2022-09-09T22:30:52.446Z,11.69
2022-09-09T22:31:57.170Z,11.61
2022-09-09T22:32:59.245Z,11.60
2022-09-09T22:34:03.827Z,11.58
2022-09-09T22:35:07.777Z,11.60
2022-09-09T22:36:12.781Z,11.57
2022-09-09T22:37:14.805Z,11.61
2022-09-09T22:38:22.355Z,11.67
2022-09-09T22:39:24.763Z,11.80
2022-09-09T22:40:30.001Z,11.81
2022-09-09T22:41:32.381Z,11.76
2022-09-09T22:42:37.512Z,11.80
2022-09-09T22:43:42.349Z,11.75
2022-09-09T22:44:46.949Z,11.71
2022-09-09T22:45:50.105Z,11.71
2022-09-09T22:46:55.412Z,11.75
2022-09-09T22:47:57.425Z,11.78
2022-09-09T22:49:03.838Z,11.77
2022-09-09T22:50:07.283Z,11.75
2022-09-09T22:51:14.228Z,11.78
2022-09-09T22:52:17.201Z,11.75
2022-09-09T22:53:24.403Z,11.85
2022-09-09T22:54:27.074Z,11.77
2022-09-09T22:55:32.295Z,11.80
2022-09-09T22:56:37.317Z,11.80
2022-09-09T22:57:39.291Z,11.84
2022-09-09T22:58:43.934Z,11.86
2022-09-09T22:59:46.028Z,11.93
2022-09-09T23:00:51.324Z,11.94
2022-09-09T23:01:57.149Z,12.02
2022-09-09T23:02:59.339Z,12.04
2022-09-09T23:04:04.636Z,11.96
2022-09-09T23:05:08.645Z,11.95
2022-09-09T23:06:22.363Z,12.09
2022-09-09T23:07:24.616Z,12.19
2022-09-09T23:08:34.528Z,12.22
2022-09-09T23:09:36.558Z,12.18
2022-09-09T23:10:43.281Z,12.15
2022-09-09T23:11:46.946Z,12.10
2022-09-09T23:12:51.559Z,12.04
2022-09-09T23:13:56.050Z,11.99
2022-09-09T23:15:00.614Z,11.93
2022-09-09T23:16:09.488Z,11.95
2022-09-09T23:17:18.573Z,12.00
2022-09-09T23:18:22.409Z,12.03
2022-09-09T23:19:28.821Z,12.08
2022-09-09T23:20:32.187Z,12.11
2022-09-09T23:21:37.494Z,12.15
2022-09-09T23:22:40.615Z,12.18
2022-09-09T23:23:48.702Z,12.19
2022-09-09T23:24:52.865Z,12.20
2022-09-09T23:25:57.505Z,12.24
2022-09-09T23:27:02.397Z,12.36
2022-09-09T23:28:04.621Z,12.43
2022-09-09T23:29:09.792Z,12.45
2022-09-09T23:30:12.764Z,12.52
2022-09-09T23:31:19.972Z,12.58
2022-09-09T23:32:22.953Z,12.60
2022-09-09T23:33:27.622Z,12.62
2022-09-09T23:34:32.223Z,12.75
2022-09-09T23:35:34.219Z,12.82
2022-09-09T23:36:39.298Z,12.89
2022-09-09T23:37:41.407Z,12.95
2022-09-09T23:38:49.030Z,12.99
2022-09-09T23:39:51.021Z,12.99
2022-09-09T23:40:56.106Z,12.99
2022-09-09T23:42:05.697Z,13.05
2022-09-09T23:43:09.112Z,13.07
2022-09-09T23:44:15.026Z,13.07
2022-09-09T23:45:18.522Z,13.01
2022-09-09T23:46:25.312Z,12.79
2022-09-09T23:47:30.010Z,12.70
2022-09-09T23:48:32.042Z,12.48
2022-09-09T23:49:37.350Z,12.39
2022-09-09T23:50:39.337Z,12.33
2022-09-09T23:51:44.089Z,12.29
2022-09-09T23:52:46.390Z,12.14
2022-09-09T23:53:57.006Z,12.09
2022-09-09T23:54:59.553Z,12.01
2022-09-09T23:56:04.357Z,11.97
2022-09-09T23:57:08.969Z,11.99
2022-09-09T23:58:11.081Z,11.94
2022-09-09T23:59:15.822Z,11.97
